Buoy 46930

sailwx.info

Track history (hours):
 
Tides and Currents Weather Stations Pressure Air Temp Water Temp Dewpoint Dewpoint Depression Visibility Wind Speed Wind Dir Waves Ship Positions

Drifting buoy 46930

Last reported at 2015-Apr-18 00:00 UTC. Time now 2015-Apr-18 03:18 UTC.
Position N 14°09' W 120°52'.

Date/timePositionNaut miles runAvg speedWind from/ knotsBaromVisibWave heightAir tempDewpointWater temp
2015-Apr-18 00:00N 14°09' W 120°52'1 0.2
2015-Apr-17 16:00N 14°10' W 120°52'1 0.3
2015-Apr-17 13:00N 14°10' W 120°51'1 0.8
2015-Apr-17 12:00N 14°10' W 120°52'5 0.3
2015-Apr-16 22:00N 14°14' W 120°50'1 0.2
2015-Apr-16 16:00N 14°16' W 120°49'1 0.5
2015-Apr-16 14:00N 14°16' W 120°49'2 0.2
2015-Apr-16 04:00N 14°19' W 120°49'2 0.4
2015-Apr-15 22:00N 14°21' W 120°49'1 0.4
2015-Apr-15 20:00N 14°22' W 120°49'2 0.4
2015-Apr-15 15:00N 14°23' W 120°49'0 0.2
2015-Apr-15 13:00N 14°24' W 120°49'5 0.3
2015-Apr-14 21:00N 14°28' W 120°47'3 0.6
2015-Apr-14 17:00N 14°31' W 120°46'7 0.3
2015-Apr-13 18:00N 14°37' W 120°48'3 0.1
2015-Apr-12 15:00N 14°40' W 120°48'6 0.4
2015-Apr-12 02:00N 14°46' W 120°50'1 0.3
2015-Apr-11 23:00N 14°46' W 120°51'1 1.0
2015-Apr-11 22:00N 14°46' W 120°52'1 1.3
2015-Apr-11 21:00N 14°48' W 120°51'0 0.0
2015-Apr-11 19:00N 14°48' W 120°51'1 0.6
2015-Apr-11 18:00N 14°48' W 120°52'0 0.4
2015-Apr-11 17:00N 14°48' W 120°52'2 0.4
2015-Apr-11 12:00N 14°48' W 120°54'1 0.1
2015-Apr-11 08:00N 14°47' W 120°54'1 0.2
2015-Apr-11 03:00N 14°47' W 120°55'1 0.7
2015-Apr-11 01:00N 14°47' W 120°54'2 0.5
2015-Apr-10 22:00N 14°47' W 120°52'1 0.2
2015-Apr-10 19:00N 14°47' W 120°53'2 0.5
2015-Apr-10 14:00N 14°49' W 120°52'2 0.7
2015-Apr-10 11:00N 14°51' W 120°51'3 0.5
2015-Apr-10 05:00N 14°54' W 120°52'0 0.4
2015-Apr-10 04:00N 14°54' W 120°52'4 0.3
2015-Apr-09 16:00N 14°54' W 120°56'0 0.0
2015-Apr-09 15:00N 14°54' W 120°56'2 0.4
2015-Apr-09 11:00N 14°53' W 120°55'1 0.7
2015-Apr-09 10:00N 14°53' W 120°54'8 0.3
2015-Apr-08 06:00N 14°58' W 120°48'1 0.8
2015-Apr-08 05:00N 14°57' W 120°48'1 0.3
2015-Apr-08 03:00N 14°58' W 120°48'  
Track history (hours):
 
Tides and Currents Weather Stations Pressure Air Temp Water Temp Dewpoint Dewpoint Depression Visibility Wind Speed Wind Dir Waves Ship Positions

Drifting buoy 46930

Last reported at 2015-Apr-18 00:00 UTC. Time now 2015-Apr-18 03:18 UTC.
Position N 14°09' W 120°52'.

Date/timePositionNaut miles runAvg speedWind from/ knotsBaromVisibWave heightAir tempDewpointWater temp
2015-Apr-18 00:00N 14°09' W 120°52'1 0.2
2015-Apr-17 16:00N 14°10' W 120°52'1 0.3
2015-Apr-17 13:00N 14°10' W 120°51'1 0.8
2015-Apr-17 12:00N 14°10' W 120°52'5 0.3
2015-Apr-16 22:00N 14°14' W 120°50'1 0.2
2015-Apr-16 16:00N 14°16' W 120°49'1 0.5
2015-Apr-16 14:00N 14°16' W 120°49'2 0.2
2015-Apr-16 04:00N 14°19' W 120°49'2 0.4
2015-Apr-15 22:00N 14°21' W 120°49'1 0.4
2015-Apr-15 20:00N 14°22' W 120°49'2 0.4
2015-Apr-15 15:00N 14°23' W 120°49'0 0.2
2015-Apr-15 13:00N 14°24' W 120°49'5 0.3
2015-Apr-14 21:00N 14°28' W 120°47'3 0.6
2015-Apr-14 17:00N 14°31' W 120°46'7 0.3
2015-Apr-13 18:00N 14°37' W 120°48'3 0.1
2015-Apr-12 15:00N 14°40' W 120°48'6 0.4
2015-Apr-12 02:00N 14°46' W 120°50'1 0.3
2015-Apr-11 23:00N 14°46' W 120°51'1 1.0
2015-Apr-11 22:00N 14°46' W 120°52'1 1.3
2015-Apr-11 21:00N 14°48' W 120°51'0 0.0
2015-Apr-11 19:00N 14°48' W 120°51'1 0.6
2015-Apr-11 18:00N 14°48' W 120°52'0 0.4
2015-Apr-11 17:00N 14°48' W 120°52'2 0.4
2015-Apr-11 12:00N 14°48' W 120°54'1 0.1
2015-Apr-11 08:00N 14°47' W 120°54'1 0.2
2015-Apr-11 03:00N 14°47' W 120°55'1 0.7
2015-Apr-11 01:00N 14°47' W 120°54'2 0.5
2015-Apr-10 22:00N 14°47' W 120°52'1 0.2
2015-Apr-10 19:00N 14°47' W 120°53'2 0.5
2015-Apr-10 14:00N 14°49' W 120°52'2 0.7
2015-Apr-10 11:00N 14°51' W 120°51'3 0.5
2015-Apr-10 05:00N 14°54' W 120°52'0 0.4
2015-Apr-10 04:00N 14°54' W 120°52'4 0.3
2015-Apr-09 16:00N 14°54' W 120°56'0 0.0
2015-Apr-09 15:00N 14°54' W 120°56'2 0.4
2015-Apr-09 11:00N 14°53' W 120°55'1 0.7
2015-Apr-09 10:00N 14°53' W 120°54'8 0.3
2015-Apr-08 06:00N 14°58' W 120°48'1 0.8
2015-Apr-08 05:00N 14°57' W 120°48'1 0.3
2015-Apr-08 03:00N 14°58' W 120°48'  

Dump ship's entire track history